Aviation Digital Data Service (ADDS)

Output produced by METARs form (0023 UTC 24 March 2019)
found at http://aviationweather.gov/metar/data/
 
Forecast for: ETNT (WITTMUNDHAVEN(GA, DE)
Text: TAF ETNT 232300Z 2400/2409 30003KT 9999 NSW BKN140 BKN230
Forecast period: 0000 to 0900 UTC 24 March 2019
Forecast type: FROM: standard forecast or significant change
Winds: from the WNW (300 degrees) at 3 MPH (3 knots; 1.5 m/s)
Visibility: 6 or more miles 10+ km)
Ceiling: 14000 feet AGL
Clouds: broken clouds at 14000 feet AGL
broken clouds at 23000 feet AGL
Weather: NSW  (no significant weather)
Text: TEMPO 2400/2407 VRB02KT 3000 BR SCT140 BKN230
Forecast period: 0000 to 0700 UTC 24 March 2019
Forecast type: TEMPORARY: The following changes expected for less than half the time period
Winds: variable direction winds at 2 MPH (2 knots; 1.0 m/s)
Visibility: 1.86 miles (2.99 km)
Ceiling: 23000 feet AGL
Clouds: scattered clouds at 14000 feet AGL
broken clouds at 23000 feet AGL
Weather: BR  (mist)
Text: PROB30 2402/2407 VRB02KT 0500 FG SCT120 BY ETGL
Forecast period: 0200 to 0700 UTC 24 March 2019
Forecast type: PROBABLE: 30 percent likelihood of the following during this time
Winds: variable direction winds at 2 MPH (2 knots; 1.0 m/s)
Visibility: 0.31 miles (0.50 km)
Ceiling: at least 12,000 feet AGL
Clouds: scattered clouds at 12000 feet AGL
Weather: FG  (fog)